Time;durP1;ratioP1;P1;durP2;ratioP2;P2;SDS_P1;SDS_P2;PMS_P1;PMS_P2;Temp;Humidity;BMP_temperature;BMP_pressure;BME280_temperature;BME280_humidity;BME280_pressure;Samples;Min_cycle;Max_cycle;Signal;HPM_P1;HPM_P2
2022/07/20 00:02:04;;;;;;;8.07;3.20;;;;;;;14.86;72.96;95614.03;5060914;28;20044;-67
2022/07/20 00:04:31;;;;;;;9.70;3.17;;;;;;;14.82;72.55;95608.47;5059083;28;20930;-67
2022/07/20 00:06:58;;;;;;;3.55;2.70;;;;;;;14.74;73.45;95602.81;5061832;28;20716;-66
2022/07/20 00:12:10;;;;;;;8.98;3.15;;;;;;;14.66;72.85;95596.94;5060309;28;20063;-65
2022/07/20 00:14:38;;;;;;;3.47;2.45;;;;;;;14.69;72.22;95599.09;5058014;28;20032;-66
2022/07/20 00:17:05;;;;;;;5.35;2.67;;;;;;;14.71;71.69;95599.63;5057994;28;20052;-66
2022/07/20 00:19:32;;;;;;;4.60;3.30;;;;;;;14.75;71.80;95596.53;5057188;28;20112;-66
2022/07/20 00:21:59;;;;;;;5.10;2.97;;;;;;;14.82;71.37;95597.97;5044777;28;20037;-66
2022/07/20 00:24:26;;;;;;;4.18;3.10;;;;;;;14.90;71.23;95594.16;5060339;28;20048;-66
2022/07/20 00:26:52;;;;;;;3.20;2.22;;;;;;;14.96;70.94;95598.44;5057995;28;20040;-66
2022/07/20 00:29:19;;;;;;;2.97;2.13;;;;;;;14.98;70.97;95592.94;5060639;28;20052;-66
2022/07/20 00:31:46;;;;;;;4.88;2.35;;;;;;;15.04;70.47;95599.88;5057305;28;20048;-66
2022/07/20 00:34:13;;;;;;;3.92;2.30;;;;;;;15.05;70.21;95601.44;5062261;28;20090;-66
2022/07/20 00:36:40;;;;;;;4.13;2.50;;;;;;;15.04;70.25;95595.41;5057524;28;20044;-66
2022/07/20 00:39:06;;;;;;;5.15;3.00;;;;;;;15.03;70.34;95599.06;5061157;28;20053;-66
2022/07/20 00:41:34;;;;;;;16.92;2.92;;;;;;;15.03;69.90;95599.06;5054916;28;20043;-66
2022/07/20 00:44:07;;;;;;;5.00;2.20;;;;;;;15.04;70.05;95595.41;5058850;28;20040;-67
2022/07/20 00:46:42;;;;;;;3.35;2.25;;;;;;;15.08;70.43;95601.75;5056054;28;20036;-66
2022/07/20 00:49:10;;;;;;;3.47;2.42;;;;;;;15.12;70.37;95601.28;5059604;28;20056;-67
2022/07/20 00:51:40;;;;;;;3.30;2.15;;;;;;;15.14;70.70;95599.22;5056326;28;20049;-66
2022/07/20 00:54:08;;;;;;;3.72;2.60;;;;;;;15.14;70.35;95599.22;5058348;28;20055;-67
2022/07/20 00:56:36;;;;;;;5.28;2.33;;;;;;;15.12;70.33;95590.78;5059100;28;20044;-67
2022/07/20 00:59:06;;;;;;;7.70;3.53;;;;;;;15.13;70.42;95595.03;5057053;28;20110;-67
2022/07/20 01:01:33;;;;;;;3.40;2.08;;;;;;;15.09;70.82;95597.34;5059864;28;20054;-67
2022/07/20 01:04:01;;;;;;;4.47;2.05;;;;;;;15.09;70.35;95592.88;5056703;28;20047;-67
2022/07/20 01:06:28;;;;;;;3.03;2.58;;;;;;;15.07;70.41;95589.69;5060324;28;20068;-67
2022/07/20 01:08:56;;;;;;;4.60;2.47;;;;;;;15.04;69.72;95597.25;5055680;28;21454;-67
2022/07/20 01:11:23;;;;;;;3.28;2.42;;;;;;;15.10;69.44;95591.03;5060576;28;20830;-67
2022/07/20 01:13:50;;;;;;;2.83;2.58;;;;;;;15.05;70.29;95591.78;5056176;28;20045;-67
2022/07/20 01:16:17;;;;;;;3.47;2.50;;;;;;;15.04;70.19;95590.16;5061557;28;20055;-67
2022/07/20 01:18:44;;;;;;;3.40;2.30;;;;;;;15.00;70.32;95594.31;5039102;28;20510;-67
2022/07/20 01:21:11;;;;;;;3.97;2.55;;;;;;;14.99;70.70;95586.69;5059111;28;20040;-67
2022/07/20 01:23:38;;;;;;;4.53;2.47;;;;;;;14.95;69.62;95581.13;5055767;28;20056;-67
2022/07/20 01:26:05;;;;;;;3.80;2.45;;;;;;;14.95;70.21;95581.13;5038661;28;20036;-67
2022/07/20 01:28:32;;;;;;;3.95;2.20;;;;;;;14.78;70.42;95554.88;5061053;28;20044;-67
2022/07/20 01:30:59;;;;;;;3.28;2.45;;;;;;;14.95;70.50;95586.38;5036431;28;20060;-67
2022/07/20 01:33:26;;;;;;;3.55;2.13;;;;;;;14.94;69.55;95579.53;5059300;28;20722;-67
2022/07/20 01:35:53;;;;;;;3.58;2.25;;;;;;;14.90;69.95;95575.78;5036433;28;20036;-67
2022/07/20 01:38:19;;;;;;;3.78;1.95;;;;;;;14.89;70.49;95582.06;5059948;28;20040;-67
2022/07/20 01:40:46;;;;;;;2.67;2.30;;;;;;;14.87;70.38;95578.88;5054842;28;20093;-67
2022/07/20 01:43:13;;;;;;;2.88;1.90;;;;;;;14.88;70.87;95583.09;5059229;28;21424;-67
2022/07/20 01:45:40;;;;;;;11.13;2.05;;;;;;;14.88;71.27;95580.47;5055997;28;20040;-67
2022/07/20 01:48:07;;;;;;;3.97;2.05;;;;;;;14.87;71.10;95573.63;5059331;28;20048;-67
2022/07/20 01:50:36;;;;;;;9.25;2.58;;;;;;;14.84;70.95;95574.94;5055369;28;20041;-67
2022/07/20 01:53:04;;;;;;;6.72;2.10;;;;;;;14.87;70.88;95573.63;5061796;28;20185;-67
2022/07/20 01:55:31;;;;;;;3.17;2.00;;;;;;;14.80;72.08;95588.75;5056164;28;20520;-67
2022/07/20 01:57:58;;;;;;;6.35;2.28;;;;;;;14.80;71.86;95586.13;5056455;28;20048;-66
2022/07/20 02:00:25;;;;;;;4.93;2.30;;;;;;;14.75;71.89;95583.41;5056500;28;20048;-67
2022/07/20 02:02:52;;;;;;;3.42;2.30;;;;;;;14.79;71.08;95587.94;5038087;28;20106;-67
2022/07/20 02:05:19;;;;;;;3.53;2.10;;;;;;;14.77;71.77;95579.53;5043549;28;20507;-67
2022/07/20 02:07:46;;;;;;;3.40;2.33;;;;;;;14.72;71.82;95588.09;5056647;28;20043;-67
2022/07/20 02:10:14;;;;;;;3.53;2.25;;;;;;;14.67;72.26;95585.41;5055827;28;21579;-67
2022/07/20 02:12:41;;;;;;;2.50;2.10;;;;;;;14.65;72.35;95587.47;5061159;28;20078;-67
2022/07/20 02:15:11;;;;;;;5.72;2.90;;;;;;;14.58;72.83;95584.19;5054137;28;20048;-67
2022/07/20 02:17:39;;;;;;;5.82;2.80;;;;;;;14.53;72.77;95578.84;5055198;28;20101;-67
2022/07/20 02:20:07;;;;;;;4.25;2.33;;;;;;;14.49;72.59;95580.34;5061700;28;20076;-68
2022/07/20 02:22:33;;;;;;;14.13;3.00;;;;;;;14.49;73.16;95577.72;5056843;28;20032;-67
2022/07/20 02:25:00;;;;;;;6.93;2.60;;;;;;;14.44;73.40;95588.13;5060587;28;20059;-66
2022/07/20 02:27:27;;;;;;;9.20;2.80;;;;;;;14.39;73.62;95580.19;5055800;28;20684;-66
2022/07/20 02:29:54;;;;;;;3.40;2.55;;;;;;;14.30;74.29;95580.56;5056989;28;20517;-67
2022/07/20 02:32:21;;;;;;;4.10;2.30;;;;;;;14.25;74.63;95582.31;5055435;28;20052;-67
2022/07/20 02:34:48;;;;;;;3.90;2.55;;;;;;;14.18;75.61;95571.97;5055939;28;20044;-66
2022/07/20 02:37:14;;;;;;;7.68;3.22;;;;;;;14.11;75.86;95587.03;5057595;28;20048;-67
2022/07/20 02:39:41;;;;;;;4.10;2.85;;;;;;;14.05;76.55;95583.53;5055471;28;20048;-66
2022/07/20 02:42:08;;;;;;;4.43;2.70;;;;;;;14.00;76.63;95585.25;5057954;28;20032;-66
2022/07/20 02:44:35;;;;;;;4.55;2.50;;;;;;;13.95;76.63;95584.16;5054712;28;20083;-67
2022/07/20 02:47:02;;;;;;;9.55;4.05;;;;;;;13.96;76.85;95585.72;5057697;28;20514;-67
2022/07/20 02:49:29;;;;;;;5.85;3.00;;;;;;;13.93;76.63;95594.03;5055882;28;20059;-67
2022/07/20 02:51:55;;;;;;;3.95;2.88;;;;;;;13.85;78.05;95594.41;5056864;28;20052;-66
2022/07/20 02:54:23;;;;;;;5.13;2.97;;;;;;;13.90;78.17;95591.91;5057097;28;20102;-67
2022/07/20 02:56:50;;;;;;;4.82;2.42;;;;;;;13.87;79.12;95592.34;5057019;28;20047;-67
2022/07/20 02:59:17;;;;;;;4.78;3.03;;;;;;;13.85;79.80;95599.66;5055808;28;20044;-66
2022/07/20 03:01:44;;;;;;;5.72;2.75;;;;;;;13.95;78.54;95599.88;5052487;28;20135;-67
2022/07/20 03:04:11;;;;;;;3.88;2.80;;;;;;;13.95;78.87;95606.91;5055470;28;20049;-67
2022/07/20 03:06:38;;;;;;;8.73;3.28;;;;;;;13.94;79.28;95610.56;5054486;28;20032;-66
2022/07/20 03:09:05;;;;;;;6.15;2.80;;;;;;;13.75;81.53;95607.31;5042070;28;20047;-66
2022/07/20 03:11:32;;;;;;;3.90;3.08;;;;;;;13.75;82.94;95615.16;5055237;28;20045;-67
2022/07/20 03:13:58;;;;;;;6.97;3.20;;;;;;;13.75;84.01;95604.69;5065294;28;20188;-66
2022/07/20 03:16:25;;;;;;;4.13;3.40;;;;;;;13.70;84.96;95607.19;5056221;28;20049;-65
2022/07/20 03:18:52;;;;;;;3.75;2.80;;;;;;;13.68;86.01;95604.00;5064443;28;20044;-66
2022/07/20 03:21:20;;;;;;;11.77;3.65;;;;;;;13.67;86.56;95607.69;5053166;28;20045;-67
2022/07/20 03:23:55;;;;;;;;;;;;;;;13.61;86.86;95611.19;5057304;28;20143;-67
2022/07/20 03:26:22;;;;;;;9.10;3.25;;;;;;;13.50;87.99;95605.75;5057708;28;20882;-67
2022/07/20 03:28:49;;;;;;;7.85;3.90;;;;;;;13.43;89.09;95601.66;5058164;28;20434;-65
2022/07/20 03:31:16;;;;;;;5.05;3.70;;;;;;;13.40;89.26;95613.41;5055931;28;21349;-65
2022/07/20 03:33:51;;;;;;;4.85;3.42;;;;;;;13.38;88.88;95624.09;5021019;28;20735;-67
2022/07/20 03:36:19;;;;;;;7.40;3.78;;;;;;;13.29;88.27;95622.00;5057737;28;20094;-66
2022/07/20 03:38:46;;;;;;;6.47;4.68;;;;;;;13.36;88.44;95623.53;5060303;28;20040;-66
2022/07/20 03:41:13;;;;;;;6.25;3.53;;;;;;;13.37;88.03;95619.09;5067750;28;20102;-66
2022/07/20 03:43:40;;;;;;;5.35;4.47;;;;;;;13.38;88.10;95625.91;5061994;28;20044;-66
2022/07/20 03:46:07;;;;;;;8.57;4.43;;;;;;;13.44;87.93;95625.00;5065045;28;20041;-66
2022/07/20 03:48:36;;;;;;;7.45;4.10;;;;;;;13.51;88.09;95633.53;5060836;28;20048;-66
2022/07/20 03:51:04;;;;;;;6.97;4.80;;;;;;;13.57;88.08;95629.19;5060316;28;20040;-66
2022/07/20 03:53:31;;;;;;;8.20;4.88;;;;;;;13.63;87.79;95622.22;5057515;28;20049;-66
2022/07/20 03:56:03;;;;;;;8.40;4.00;;;;;;;13.66;87.78;95621.78;5062972;28;20143;-67
2022/07/20 03:58:30;;;;;;;4.68;3.65;;;;;;;13.70;87.88;95628.13;5057154;28;20036;-68
2022/07/20 04:00:56;;;;;;;7.13;4.35;;;;;;;13.79;87.22;95626.75;5059387;28;20047;-68
2022/07/20 04:03:23;;;;;;;6.10;3.72;;;;;;;13.84;87.01;95629.47;5060060;28;20182;-68
2022/07/20 04:05:50;;;;;;;5.88;4.10;;;;;;;13.96;87.03;95632.06;5044156;28;21453;-66
2022/07/20 04:08:17;;;;;;;7.80;4.35;;;;;;;14.01;87.93;95632.19;5056576;28;20044;-68
2022/07/20 04:10:44;;;;;;;7.30;4.15;;;;;;;13.98;88.58;95630.00;5038628;28;20743;-67
2022/07/20 04:13:10;;;;;;;4.82;3.85;;;;;;;13.99;89.26;95636.03;5064705;28;21171;-67
2022/07/20 04:15:37;;;;;;;5.13;3.83;;;;;;;14.08;89.40;95634.63;5059383;28;20513;-67
2022/07/20 04:18:08;;;;;;;11.73;5.50;;;;;;;14.20;89.30;95643.25;5044044;28;20052;-67
2022/07/20 04:20:35;;;;;;;7.57;4.05;;;;;;;14.26;89.23;95633.66;5048660;28;20044;-67
2022/07/20 04:23:02;;;;;;;7.95;4.60;;;;;;;14.31;88.69;95645.06;5056940;28;21797;-67
2022/07/20 04:25:29;;;;;;;5.25;3.60;;;;;;;14.42;88.02;95642.59;5056044;28;20037;-67
2022/07/20 04:27:58;;;;;;;8.73;3.90;;;;;;;14.50;87.40;95644.88;5062773;28;20056;-67
2022/07/20 04:30:32;;;;;;;6.05;4.90;;;;;;;14.59;86.83;95640.84;5056498;28;20893;-70
2022/07/20 04:32:58;;;;;;;11.77;5.30;;;;;;;14.62;85.60;95629.91;5061626;28;20032;-69
2022/07/20 04:35:25;;;;;;;7.53;4.38;;;;;;;14.77;84.14;95646.94;5058452;28;20044;-68
2022/07/20 04:37:52;;;;;;;8.07;4.10;;;;;;;14.86;83.49;95645.50;5057432;28;20514;-67
2022/07/20 04:40:19;;;;;;;9.52;4.38;;;;;;;14.95;82.12;95649.31;5057954;28;20510;-67
2022/07/20 04:42:46;;;;;;;4.53;3.63;;;;;;;15.04;81.33;95647.88;5057130;28;20048;-67
2022/07/20 04:45:13;;;;;;;13.40;4.57;;;;;;;15.19;80.04;95660.44;5062505;28;20047;-67
2022/07/20 04:47:39;;;;;;;7.22;4.45;;;;;;;15.29;79.60;95659.81;5058343;28;20048;-67
2022/07/20 04:50:08;;;;;;;7.07;4.00;;;;;;;15.32;79.21;95642.78;5064669;28;20047;-67
2022/07/20 04:52:34;;;;;;;7.85;3.90;;;;;;;15.44;78.55;95660.00;5055113;28;20056;-67
2022/07/20 04:55:02;;;;;;;15.18;4.20;;;;;;;15.46;78.14;95657.94;5060702;28;20053;-67
2022/07/20 04:57:28;;;;;;;6.63;3.83;;;;;;;15.56;78.05;95653.91;5054678;28;20040;-67
2022/07/20 04:59:55;;;;;;;18.35;4.07;;;;;;;15.62;77.48;95652.91;5056829;28;20048;-67
2022/07/20 05:02:22;;;;;;;6.60;3.67;;;;;;;15.67;77.21;95664.28;5054339;28;20044;-67
2022/07/20 05:04:49;;;;;;;9.10;4.57;;;;;;;15.78;77.26;95661.81;5056357;28;20045;-67
2022/07/20 05:07:16;;;;;;;4.80;4.25;;;;;;;15.81;76.73;95666.56;5056595;28;20153;-67
2022/07/20 05:09:43;;;;;;;15.10;4.47;;;;;;;15.96;76.53;95668.63;5058281;28;20118;-67
2022/07/20 05:12:10;;;;;;;9.70;3.83;;;;;;;16.04;75.26;95670.81;5059385;28;20051;-66
2022/07/20 05:14:36;;;;;;;8.73;3.85;;;;;;;16.20;75.67;95669.94;5054998;28;20040;-67
2022/07/20 05:17:04;;;;;;;11.10;3.67;;;;;;;16.36;75.67;95667.50;5058647;28;20131;-67
2022/07/20 05:19:31;;;;;;;9.38;3.17;;;;;;;16.51;74.65;95669.47;5037904;28;21462;-67
2022/07/20 05:21:58;;;;;;;11.23;3.80;;;;;;;16.65;72.40;95675.16;5060372;28;20056;-67
2022/07/20 05:24:24;;;;;;;5.53;3.15;;;;;;;16.71;72.94;95674.16;5058065;28;20048;-67
2022/07/20 05:26:52;;;;;;;7.25;3.78;;;;;;;16.75;72.30;95665.53;5058517;28;20040;-67
2022/07/20 05:29:20;;;;;;;4.28;3.38;;;;;;;16.89;71.63;95660.69;5056468;28;20060;-67
2022/07/20 05:31:47;;;;;;;4.43;3.25;;;;;;;17.00;71.16;95662.34;5055462;28;20045;-67
2022/07/20 05:34:14;;;;;;;11.52;4.07;;;;;;;17.09;70.99;95661.91;5056203;28;20516;-66
2022/07/20 05:36:41;;;;;;;5.72;3.40;;;;;;;17.20;71.13;95681.97;5057467;28;20479;-66
2022/07/20 05:39:09;;;;;;;10.13;2.80;;;;;;;17.34;70.18;95671.78;5056188;28;20039;-66
2022/07/20 05:41:37;;;;;;;6.43;3.17;;;;;;;17.45;69.95;95673.47;5054691;28;20508;-66
2022/07/20 05:44:04;;;;;;;4.25;3.20;;;;;;;17.54;68.79;95676.44;5035435;28;20044;-65
2022/07/20 05:46:31;;;;;;;7.07;3.47;;;;;;;17.65;68.30;95672.81;5054616;28;20059;-66
2022/07/20 05:48:58;;;;;;;7.90;3.33;;;;;;;17.82;68.26;95669.19;5061371;28;20121;-67
2022/07/20 05:51:25;;;;;;;94.82;39.35;;;;;;;17.89;68.56;95672.44;5058113;28;20094;-67
2022/07/20 05:53:57;;;;;;;15.85;6.18;;;;;;;18.02;68.58;95671.16;5060553;28;20067;-67
2022/07/20 05:56:24;;;;;;;8.27;4.05;;;;;;;18.13;68.75;95676.25;5057564;28;20139;-66
2022/07/20 05:58:51;;;;;;;7.43;4.05;;;;;;;18.36;67.74;95676.03;5060035;28;20051;-66
2022/07/20 06:01:19;;;;;;;14.40;4.53;;;;;;;18.52;66.40;95681.09;5057077;28;20098;-66
2022/07/20 06:03:46;;;;;;;5.22;3.22;;;;;;;18.74;65.14;95677.44;5056525;28;20036;-66
2022/07/20 06:06:14;;;;;;;5.32;2.92;;;;;;;18.90;63.54;95676.44;5056403;28;21533;-67
2022/07/20 06:08:41;;;;;;;6.22;4.10;;;;;;;19.03;63.62;95679.63;5058361;28;20040;-67
2022/07/20 06:11:28;;;;;;;8.52;4.13;;;;;;;19.22;62.55;95683.31;5058005;28;20037;-67
2022/07/20 06:13:54;;;;;;;4.22;3.17;;;;;;;19.37;61.29;95684.38;5057110;28;20067;-67
2022/07/20 06:16:21;;;;;;;3.58;2.90;;;;;;;19.41;62.10;95685.41;5057270;28;20055;-67
2022/07/20 06:18:48;;;;;;;6.47;3.00;;;;;;;19.48;63.04;95680.66;5055392;28;20043;-67
2022/07/20 06:21:16;;;;;;;8.55;3.25;;;;;;;19.50;61.52;95670.63;5058112;28;20192;-67
2022/07/20 06:23:43;;;;;;;7.75;2.78;;;;;;;19.44;62.43;95674.31;5073440;28;20047;-67
2022/07/20 06:26:09;;;;;;;7.47;3.40;;;;;;;19.48;61.50;95680.66;5057791;28;20900;-67
2022/07/20 06:28:36;;;;;;;5.03;2.65;;;;;;;19.53;61.26;95683.28;5062614;28;20055;-66
2022/07/20 06:31:05;;;;;;;8.07;3.25;;;;;;;19.46;60.99;95677.50;5061841;28;20044;-66
2022/07/20 06:33:32;;;;;;;4.15;3.15;;;;;;;19.54;61.42;95673.53;5060563;28;20262;-67
2022/07/20 06:36:00;;;;;;;10.77;2.67;;;;;;;19.76;59.81;95681.19;5060109;28;20044;-67
2022/07/20 06:38:27;;;;;;;12.00;2.70;;;;;;;20.03;59.30;95671.03;5055775;28;20431;-67
2022/07/20 06:40:54;;;;;;;11.15;2.50;;;;;;;20.22;58.72;95673.88;5062491;28;20582;-67
2022/07/20 06:43:23;;;;;;;12.50;3.30;;;;;;;20.42;59.20;95674.84;5053849;28;20070;-65
2022/07/20 06:45:50;;;;;;;10.15;2.75;;;;;;;20.56;56.77;95672.38;5055423;28;20059;-65
2022/07/20 06:48:17;;;;;;;11.45;2.53;;;;;;;20.70;56.87;95667.31;5056987;28;20547;-66
2022/07/20 06:50:44;;;;;;;5.88;2.63;;;;;;;20.88;54.50;95679.09;5055359;28;20044;-66
2022/07/20 06:53:12;;;;;;;7.78;2.92;;;;;;;20.81;55.38;95669.63;5057911;28;20094;-65
2022/07/20 06:55:38;;;;;;;12.77;3.92;;;;;;;20.92;53.88;95674.84;5054612;28;20036;-65
2022/07/20 06:58:05;;;;;;;13.20;3.03;;;;;;;21.10;54.80;95670.72;5038307;28;20044;-65
2022/07/20 07:00:32;;;;;;;8.85;3.35;;;;;;;21.25;52.58;95667.16;5053446;28;20686;-66
2022/07/20 07:02:59;;;;;;;15.00;3.28;;;;;;;21.35;51.58;95656.47;5038921;28;20746;-67
2022/07/20 07:05:26;;;;;;;9.30;3.00;;;;;;;21.60;52.25;95673.25;5054104;28;20047;-67
2022/07/20 07:07:53;;;;;;;12.18;3.20;;;;;;;21.80;52.45;95666.94;5056556;28;20047;-70
2022/07/20 07:10:20;;;;;;;19.88;2.85;;;;;;;21.94;51.29;95668.63;5060777;28;20048;-70
2022/07/20 07:12:47;;;;;;;11.75;3.40;;;;;;;22.01;50.79;95662.22;5063357;28;20051;-74
2022/07/20 07:15:14;;;;;;;13.68;3.13;;;;;;;22.17;50.68;95660.97;5056818;28;20045;-69
2022/07/20 07:17:41;;;;;;;15.90;3.50;;;;;;;22.20;49.28;95659.59;5057566;28;20029;-69
2022/07/20 07:20:08;;;;;;;16.83;2.65;;;;;;;22.44;50.66;95665.69;5043664;28;20036;-68
2022/07/20 07:22:35;;;;;;;9.30;2.42;;;;;;;22.50;48.51;95661.09;5058195;28;20045;-69
2022/07/20 07:25:03;;;;;;;10.80;2.95;;;;;;;22.70;50.92;95663.44;5039095;28;20052;-68
2022/07/20 07:27:30;;;;;;;8.65;2.63;;;;;;;22.87;46.99;95656.88;5055796;28;20041;-68
2022/07/20 07:29:56;;;;;;;9.32;2.25;;;;;;;22.99;47.13;95664.38;5059333;28;20060;-68
2022/07/20 07:32:23;;;;;;;11.07;2.30;;;;;;;23.01;45.45;95657.72;5054816;28;20048;-68
2022/07/20 07:34:50;;;;;;;4.82;2.58;;;;;;;23.05;43.77;95661.38;5058819;28;20060;-68
2022/07/20 07:37:17;;;;;;;10.35;2.03;;;;;;;23.20;44.77;95659.56;5069373;28;20127;-68
2022/07/20 07:39:44;;;;;;;4.25;2.10;;;;;;;23.37;45.25;95656.34;5057121;28;20049;-66
2022/07/20 07:42:10;;;;;;;15.40;2.17;;;;;;;23.39;44.61;95640.88;5062623;28;20055;-75
2022/07/20 07:44:37;;;;;;;5.50;1.98;;;;;;;23.63;44.14;95656.69;5061519;28;20131;-69
2022/07/20 07:47:05;;;;;;;4.65;1.83;;;;;;;23.85;43.88;95648.84;5064170;28;20783;-67
2022/07/20 07:49:32;;;;;;;4.55;1.60;;;;;;;23.79;42.49;95650.00;5056201;28;20052;-69
2022/07/20 07:51:59;;;;;;;4.85;1.60;;;;;;;23.99;41.32;95653.41;5061993;28;20037;-66
2022/07/20 07:54:26;;;;;;;2.08;1.35;;;;;;;24.05;41.33;95657.53;5056680;28;20515;-66
2022/07/20 07:56:52;;;;;;;7.85;1.80;;;;;;;24.35;40.31;95655.34;5063039;28;20048;-71
2022/07/20 07:59:19;;;;;;;4.40;2.22;;;;;;;24.24;41.30;95644.88;5056551;28;20039;-71
2022/07/20 08:01:59;;;;;;;8.55;2.40;;;;;;;24.34;41.69;95656.41;5057166;28;20678;-65
2022/07/20 08:04:26;;;;;;;6.18;2.00;;;;;;;24.50;41.30;95651.56;5059958;28;20052;-66
2022/07/20 08:06:52;;;;;;;9.80;1.85;;;;;;;24.69;40.26;95651.44;5063480;28;20619;-65
2022/07/20 08:09:19;;;;;;;2.75;1.50;;;;;;;24.98;39.49;95643.81;5057296;28;20147;-67
2022/07/20 08:11:47;;;;;;;2.53;1.73;;;;;;;25.34;40.39;95647.53;5056782;28;20059;-67
2022/07/20 08:14:14;;;;;;;2.28;1.70;;;;;;;25.41;40.54;95620.41;5056954;28;21101;-66
2022/07/20 08:16:41;;;;;;;4.60;1.75;;;;;;;25.38;40.08;95633.28;5061219;28;20052;-67
2022/07/20 08:19:07;;;;;;;10.93;3.05;;;;;;;25.51;39.08;95631.59;5062113;28;20058;-66
2022/07/20 08:21:34;;;;;;;9.70;2.72;;;;;;;25.72;40.54;95626.53;5035947;28;20032;-67
2022/07/20 08:24:03;;;;;;;9.57;2.55;;;;;;;25.70;40.16;95628.72;5039960;28;20029;-67
2022/07/20 08:26:30;;;;;;;10.95;1.88;;;;;;;25.83;39.33;95631.59;5054743;28;20040;-67
2022/07/20 08:28:57;;;;;;;11.13;2.50;;;;;;;25.96;38.35;95620.03;5060293;28;21484;-67
2022/07/20 08:31:24;;;;;;;6.53;1.67;;;;;;;25.95;37.33;95634.50;5039388;28;20049;-67
2022/07/20 08:33:51;;;;;;;5.60;1.85;;;;;;;26.10;36.48;95620.69;5040630;28;20048;-66
2022/07/20 08:36:19;;;;;;;8.43;2.72;;;;;;;26.26;36.36;95628.28;5060527;28;20094;-67
2022/07/20 08:38:46;;;;;;;8.48;2.67;;;;;;;26.33;36.81;95617.94;5067052;28;20028;-67
2022/07/20 08:41:14;;;;;;;10.00;2.10;;;;;;;26.48;35.96;95630.03;5058171;28;20041;-66
2022/07/20 08:43:41;;;;;;;5.60;2.13;;;;;;;26.77;35.82;95621.41;5076392;28;20161;-66
2022/07/20 08:46:08;;;;;;;5.05;2.20;;;;;;;26.97;36.20;95624.53;5062638;28;20052;-66
2022/07/20 08:48:36;;;;;;;2.58;2.03;;;;;;;27.10;36.06;95618.25;5053409;28;20077;-66
2022/07/20 08:51:03;;;;;;;6.70;1.70;;;;;;;27.07;34.60;95618.88;5056788;28;20041;-67
2022/07/20 08:53:30;;;;;;;3.92;2.05;;;;;;;27.22;33.79;95615.69;5065290;28;20074;-66
2022/07/20 08:55:57;;;;;;;2.33;1.63;;;;;;;27.44;34.47;95614.72;5056837;28;20045;-66
2022/07/20 08:58:24;;;;;;;3.70;1.83;;;;;;;27.75;33.50;95615.53;5054113;28;20040;-67
2022/07/20 09:00:51;;;;;;;3.58;1.80;;;;;;;27.74;34.07;95614.00;5060921;28;20630;-67
2022/07/20 09:03:18;;;;;;;2.17;1.50;;;;;;;27.94;35.67;95607.94;5054602;28;20052;-67
2022/07/20 09:06:00;;;;;;;3.42;1.95;;;;;;;27.96;33.08;95597.66;5064578;28;20072;-66
2022/07/20 09:08:29;;;;;;;2.85;1.52;;;;;;;28.10;32.46;95596.66;5060383;28;20532;-67
2022/07/20 09:11:00;;;;;;;1.48;1.10;;;;;;;28.26;30.87;95613.72;5058467;28;20081;-66
2022/07/20 09:13:30;;;;;;;3.25;1.60;;;;;;;28.47;31.86;95602.22;5060438;28;20051;-66
2022/07/20 09:15:59;;;;;;;6.43;1.80;;;;;;;28.81;30.05;95601.22;5064202;28;20048;-66
2022/07/20 09:18:32;;;;;;;3.00;1.33;;;;;;;28.80;30.66;95610.34;5063019;28;20036;-66
2022/07/20 09:21:01;;;;;;;4.22;2.25;;;;;;;28.64;30.80;95602.13;5060833;28;20719;-67
2022/07/20 09:23:43;;;;;;;2.10;1.35;;;;;;;28.57;29.64;95607.22;5061922;28;20045;-67
2022/07/20 09:26:10;;;;;;;2.92;1.65;;;;;;;28.46;29.96;95603.34;5061745;28;20047;-67
2022/07/20 09:28:39;;;;;;;3.10;1.45;;;;;;;28.12;30.20;95602.47;5057546;28;20049;-66
2022/07/20 09:31:10;;;;;;;2.33;1.58;;;;;;;27.87;30.42;95601.50;5057220;28;20040;-66
2022/07/20 09:33:37;;;;;;;3.15;1.30;;;;;;;28.15;30.50;95597.25;5064368;28;20049;-66
2022/07/20 09:36:05;;;;;;;4.47;1.50;;;;;;;27.94;30.90;95591.88;5055656;28;20052;-66
2022/07/20 09:38:35;;;;;;;5.68;1.75;;;;;;;27.80;30.02;95569.88;5063265;28;20043;-66
2022/07/20 09:41:04;;;;;;;3.20;1.58;;;;;;;28.16;30.34;95592.69;5057620;28;20040;-64
2022/07/20 09:43:35;;;;;;;1.58;1.27;;;;;;;28.76;29.50;95590.69;5066004;28;20047;-66
2022/07/20 09:46:27;;;;;;;2.80;1.90;;;;;;;29.05;29.35;95583.66;5058203;28;20068;-67
2022/07/20 09:48:57;;;;;;;2.78;1.35;;;;;;;29.31;28.41;95584.16;5058801;28;20056;-67
2022/07/20 09:51:40;;;;;;;3.22;1.63;;;;;;;29.56;27.63;95592.25;5056613;28;20315;-67
2022/07/20 09:54:09;;;;;;;2.22;1.38;;;;;;;29.54;27.42;95579.16;5057919;28;20033;-66
2022/07/20 09:56:42;;;;;;;3.28;1.65;;;;;;;29.97;28.37;95587.03;5056026;28;20048;-68
2022/07/20 09:59:11;;;;;;;4.78;2.47;;;;;;;29.98;26.71;95575.16;5058413;28;20035;-67
2022/07/20 10:01:45;;;;;;;7.15;2.10;;;;;;;30.02;27.46;95579.53;5058457;28;20151;-66
2022/07/20 10:04:14;;;;;;;3.22;1.65;;;;;;;29.93;27.16;95576.19;5066000;28;20041;-63
2022/07/20 10:06:43;;;;;;;3.42;1.60;;;;;;;30.06;27.30;95571.56;5061393;28;20044;-64
2022/07/20 10:09:11;;;;;;;2.60;1.52;;;;;;;30.07;26.84;95573.94;5065494;28;20145;-64
2022/07/20 10:11:37;;;;;;;4.07;2.17;;;;;;;29.78;27.54;95572.25;5060044;28;20044;-65
2022/07/20 10:14:07;;;;;;;4.88;1.60;;;;;;;29.29;28.14;95572.19;5061402;28;20632;-66
2022/07/20 10:16:49;;;;;;;6.30;1.38;;;;;;;29.32;28.11;95563.50;5055358;28;20050;-66
2022/07/20 10:19:16;;;;;;;2.85;1.60;;;;;;;29.50;27.82;95556.81;5056997;28;20140;-67
2022/07/20 10:21:50;;;;;;;2.35;1.80;;;;;;;30.03;27.66;95556.13;5073026;28;21565;-67
2022/07/20 10:24:16;;;;;;;;;;;;;;;30.69;26.34;95557.66;5054396;28;20052;-67
2022/07/20 10:26:46;;;;;;;4.45;1.38;;;;;;;30.85;26.20;95558.47;5057523;28;19924;-66
2022/07/20 10:29:37;;;;;;;7.85;1.75;;;;;;;31.06;25.81;95547.53;5057189;28;20292;-67
2022/07/20 10:32:10;;;;;;;4.60;1.60;;;;;;;31.81;24.77;95543.16;5057756;28;20044;-68
2022/07/20 10:34:40;;;;;;;2.85;1.75;;;;;;;32.25;24.79;95544.13;5054405;28;20044;-68
2022/07/20 10:37:36;;;;;;;5.28;1.90;;;;;;;32.60;24.96;95544.09;5067126;28;20028;-67
2022/07/20 10:40:29;;;;;;;3.10;1.25;;;;;;;32.84;24.16;95542.22;5055014;28;20048;-67
2022/07/20 10:43:13;;;;;;;6.53;2.03;;;;;;;32.54;23.94;95530.09;5054288;28;20072;-68
2022/07/20 10:45:41;;;;;;;5.15;1.80;;;;;;;32.61;24.19;95531.41;5053131;28;20049;-68
2022/07/20 10:48:11;;;;;;;4.22;1.92;;;;;;;33.08;22.54;95533.00;5056454;28;20047;-67
2022/07/20 10:50:41;;;;;;;3.08;1.55;;;;;;;33.20;22.80;95527.47;5055034;28;20318;-68
2022/07/20 10:53:10;;;;;;;3.88;1.60;;;;;;;33.69;24.20;95526.75;5060666;28;20264;-68
2022/07/20 10:55:41;;;;;;;8.00;1.77;;;;;;;34.18;23.11;95530.53;5060365;28;20044;-68
2022/07/20 10:58:21;;;;;;;2.15;1.30;;;;;;;34.90;23.77;95511.63;5058678;28;20096;-67
2022/07/20 11:00:54;;;;;;;3.88;1.58;;;;;;;34.93;22.01;95525.19;5052213;28;20119;-68
2022/07/20 11:03:23;;;;;;;2.53;1.23;;;;;;;34.61;20.86;95524.84;5057012;28;20045;-68
2022/07/20 11:06:02;;;;;;;8.35;1.63;;;;;;;34.18;22.22;95518.94;5051998;28;20036;-69
2022/07/20 11:08:31;;;;;;;4.43;1.17;;;;;;;34.49;22.27;95511.59;5042696;28;20036;-71
2022/07/20 11:10:58;;;;;;;4.95;2.55;;;;;;;34.59;22.47;95521.72;5034882;28;21513;-72
2022/07/20 11:13:25;;;;;;;4.45;1.48;;;;;;;33.69;22.16;95520.53;5068656;28;20056;-70
2022/07/20 11:15:57;;;;;;;6.20;1.88;;;;;;;33.18;23.22;95524.34;5052406;28;20090;-71
2022/07/20 11:18:34;;;;;;;5.55;1.70;;;;;;;32.82;24.02;95518.31;5063835;28;20795;-71
2022/07/20 11:21:11;;;;;;;5.47;1.83;;;;;;;32.52;24.77;95513.50;5035104;28;20068;-71
2022/07/20 11:23:44;;;;;;;8.77;1.73;;;;;;;32.57;24.71;95513.22;5052987;28;20044;-72
2022/07/20 11:26:13;;;;;;;3.13;2.20;;;;;;;32.43;24.32;95507.56;5055643;28;20049;-72
2022/07/20 11:28:52;;;;;;;3.03;1.77;;;;;;;32.42;23.84;95506.00;5036928;28;20433;-71
2022/07/20 11:31:25;;;;;;;4.35;1.65;;;;;;;32.15;24.25;95497.75;5054020;28;20047;-72
2022/07/20 11:33:54;;;;;;;5.18;2.00;;;;;;;31.28;24.34;95505.00;5055547;28;20501;-69
2022/07/20 11:36:30;;;;;;;2.90;1.67;;;;;;;30.97;23.56;95485.06;5043816;28;20052;-69
2022/07/20 11:39:05;;;;;;;12.57;1.75;;;;;;;31.12;23.51;95490.78;5053120;28;20066;-69
2022/07/20 11:41:42;;;;;;;2.38;1.45;;;;;;;31.10;24.12;95482.25;5057193;28;20044;-68